This is the latest recevied weather packets stored in our database for station/object PA3EUZ. If no packets are shown the sender has not sent any weather packets the latest 10 day(s).
| Time | Temp. | Humidity | Pressure | Rain* | Wind** | Luminosity | Snow |
|---|---|---|---|---|---|---|---|
| 1777488318 | 17.22° C | 32% | 1023.9 hPa | 0 mm | - | 11 W/m² | - |
| 1777486518 | 18.33° C | 31% | 1023.6 hPa | 0 mm | - | 21 W/m² | - |
| 1777482918 | 19.44° C | 30% | 1023.3 hPa | 0 mm | - | 249 W/m² | - |
| 1777480218 | 20° C | 27% | 1023.5 hPa | 0 mm | - | 382 W/m² | - |
| 1777473018 | 20.56° C | 27% | 1023.5 hPa | 0 mm | - | 674 W/m² | - |
| 1777463118 | 18.33° C | 29% | 1024.6 hPa | 0 mm | - | 768 W/m² | - |
| 1777455918 | 16.67° C | 33% | 1025 hPa | 0 mm | - | 726 W/m² | - |
| 1777451438 | 15° C | 36% | 1025.1 hPa | 0 mm | - | 401 W/m² | - |
| 1777446018 | 11.67° C | 48% | 1025 hPa | 0 mm | - | 246 W/m² | - |
| 1777445118 | 11.11° C | 49% | 1024.8 hPa | 0 mm | - | 249 W/m² | - |
| 1777441518 | 8.89° C | 55% | 1024.5 hPa | 0 mm | - | 130 W/m² | - |
| 1777422617 | 12.22° C | 43% | 1023.1 hPa | 0 mm | - | 0 W/m² | - |
| 1777419018 | 12.78° C | 42% | 1023 hPa | 0 mm | - | 0 W/m² | - |
| 1777407318 | 15° C | 41% | 1022 hPa | 0 mm | - | 0 W/m² | - |
| 1777398318 | 18.89° C | 34% | 1020.5 hPa | 0 mm | - | 133 W/m² | - |
| 1777388438 | 20° C | 34% | 1020.3 hPa | 0 mm | - | 590 W/m² | - |
| 1777385718 | 20° C | 34% | 1020.4 hPa | 0 mm | - | 684 W/m² | - |
| 1777383918 | 20° C | 35% | 1020.6 hPa | 0 mm | - | 731 W/m² | - |
| 1777378518 | 19.44° C | 36% | 1021 hPa | 0 mm | - | 814 W/m² | - |
| 1777368618 | 15° C | 56% | 1022 hPa | 0 mm | - | 685 W/m² | - |
| 1777367718 | 14.44° C | 58% | 1022 hPa | 0 mm | - | 646 W/m² | - |
| 1777364118 | 12.78° C | 63% | 1021.8 hPa | 0 mm | - | 379 W/m² | - |
| 1777360518 | 11.11° C | 70% | 1021.8 hPa | 0 mm | - | 285 W/m² | - |
| 1777351517 | 8.33° C | 79% | 1021 hPa | 0 mm | - | 9 W/m² | - |
| 1777345237 | 9.44° C | 76% | 1021.3 hPa | 0 mm | - | 0 W/m² | - |
* Rain latest hour (hover to see other rain measurements)
** Current wind speed in m/s (hover to see current wind gust speed)